sensor_id;sensor_type;location;lat;lon;timestamp;P1;durP1;ratioP1;P2;durP2;ratioP2
17496;SDS011;62150;43.582;1.456;2022-12-18T06:27:44;9.50;;;4.80;;
17496;SDS011;62150;43.582;1.456;2022-12-18T06:30:14;12.60;;;6.37;;
17496;SDS011;62150;43.582;1.456;2022-12-18T06:32:41;12.40;;;5.90;;
17496;SDS011;62150;43.582;1.456;2022-12-18T06:35:09;11.40;;;5.50;;
17496;SDS011;62150;43.582;1.456;2022-12-18T06:37:37;10.43;;;4.83;;
17496;SDS011;62150;43.582;1.456;2022-12-18T06:40:05;11.07;;;5.30;;
17496;SDS011;62150;43.582;1.456;2022-12-18T06:42:33;11.30;;;5.30;;
17496;SDS011;62150;43.582;1.456;2022-12-18T06:45:02;14.03;;;6.70;;
17496;SDS011;62150;43.582;1.456;2022-12-18T06:47:30;12.97;;;6.60;;
17496;SDS011;62150;43.582;1.456;2022-12-18T06:49:58;12.80;;;7.27;;
17496;SDS011;62150;43.582;1.456;2022-12-18T06:52:25;13.97;;;7.60;;
17496;SDS011;62150;43.582;1.456;2022-12-18T06:54:53;13.03;;;6.73;;
17496;SDS011;62150;43.582;1.456;2022-12-18T06:57:21;12.77;;;6.47;;
17496;SDS011;62150;43.582;1.456;2022-12-18T06:59:48;12.10;;;6.20;;
17496;SDS011;62150;43.582;1.456;2022-12-18T07:02:17;13.30;;;7.13;;
17496;SDS011;62150;43.582;1.456;2022-12-18T07:04:44;13.07;;;7.33;;
17496;SDS011;62150;43.582;1.456;2022-12-18T07:07:12;12.80;;;6.97;;
17496;SDS011;62150;43.582;1.456;2022-12-18T07:09:39;12.83;;;6.73;;
17496;SDS011;62150;43.582;1.456;2022-12-18T07:12:07;12.53;;;6.27;;
17496;SDS011;62150;43.582;1.456;2022-12-18T07:14:34;11.70;;;5.97;;
17496;SDS011;62150;43.582;1.456;2022-12-18T07:17:02;13.00;;;6.67;;
17496;SDS011;62150;43.582;1.456;2022-12-18T07:19:31;11.80;;;6.43;;
17496;SDS011;62150;43.582;1.456;2022-12-18T07:21:58;13.17;;;6.90;;
17496;SDS011;62150;43.582;1.456;2022-12-18T07:24:26;12.90;;;6.90;;
17496;SDS011;62150;43.582;1.456;2022-12-18T07:26:54;13.57;;;7.07;;
17496;SDS011;62150;43.582;1.456;2022-12-18T07:29:21;14.40;;;7.83;;
17496;SDS011;62150;43.582;1.456;2022-12-18T07:31:49;13.70;;;6.97;;
17496;SDS011;62150;43.582;1.456;2022-12-18T07:34:16;13.00;;;6.87;;
17496;SDS011;62150;43.582;1.456;2022-12-18T07:36:45;11.73;;;6.20;;
17496;SDS011;62150;43.582;1.456;2022-12-18T07:39:13;12.33;;;6.50;;
17496;SDS011;62150;43.582;1.456;2022-12-18T07:41:40;13.07;;;6.27;;
17496;SDS011;62150;43.582;1.456;2022-12-18T07:44:11;14.50;;;6.73;;
17496;SDS011;62150;43.582;1.456;2022-12-18T07:46:38;13.17;;;6.57;;
17496;SDS011;62150;43.582;1.456;2022-12-18T07:49:06;13.47;;;6.57;;
17496;SDS011;62150;43.582;1.456;2022-12-18T07:51:34;12.77;;;6.80;;
17496;SDS011;62150;43.582;1.456;2022-12-18T07:54:03;13.93;;;6.57;;
17496;SDS011;62150;43.582;1.456;2022-12-18T07:56:31;12.63;;;6.70;;
17496;SDS011;62150;43.582;1.456;2022-12-18T07:58:58;12.83;;;6.27;;
17496;SDS011;62150;43.582;1.456;2022-12-18T08:01:26;12.20;;;6.50;;
17496;SDS011;62150;43.582;1.456;2022-12-18T08:03:54;12.23;;;6.37;;
17496;SDS011;62150;43.582;1.456;2022-12-18T08:06:22;11.80;;;6.03;;
17496;SDS011;62150;43.582;1.456;2022-12-18T08:08:50;12.57;;;5.50;;
17496;SDS011;62150;43.582;1.456;2022-12-18T08:11:19;11.00;;;5.27;;
17496;SDS011;62150;43.582;1.456;2022-12-18T08:13:48;9.70;;;4.93;;
17496;SDS011;62150;43.582;1.456;2022-12-18T08:16:16;11.27;;;5.50;;
17496;SDS011;62150;43.582;1.456;2022-12-18T08:18:44;11.00;;;5.40;;
17496;SDS011;62150;43.582;1.456;2022-12-18T08:21:12;10.80;;;5.13;;
17496;SDS011;62150;43.582;1.456;2022-12-18T08:23:42;10.53;;;5.37;;
17496;SDS011;62150;43.582;1.456;2022-12-18T08:26:10;12.33;;;6.00;;
17496;SDS011;62150;43.582;1.456;2022-12-18T08:28:39;9.57;;;5.03;;
17496;SDS011;62150;43.582;1.456;2022-12-18T08:31:08;11.27;;;5.90;;
17496;SDS011;62150;43.582;1.456;2022-12-18T08:33:36;11.07;;;5.67;;
17496;SDS011;62150;43.582;1.456;2022-12-18T08:36:04;11.27;;;5.70;;
17496;SDS011;62150;43.582;1.456;2022-12-18T08:38:34;11.40;;;5.40;;
17496;SDS011;62150;43.582;1.456;2022-12-18T08:41:02;11.23;;;4.77;;
17496;SDS011;62150;43.582;1.456;2022-12-18T08:43:30;11.80;;;5.37;;
17496;SDS011;62150;43.582;1.456;2022-12-18T08:46:17;9.10;;;4.37;;
17496;SDS011;62150;43.582;1.456;2022-12-18T08:48:45;11.10;;;5.07;;
17496;SDS011;62150;43.582;1.456;2022-12-18T08:51:15;10.93;;;5.13;;
17496;SDS011;62150;43.582;1.456;2022-12-18T08:53:43;9.83;;;4.83;;
17496;SDS011;62150;43.582;1.456;2022-12-18T08:56:12;10.17;;;4.80;;
17496;SDS011;62150;43.582;1.456;2022-12-18T08:58:40;11.93;;;5.70;;
17496;SDS011;62150;43.582;1.456;2022-12-18T09:01:08;13.70;;;6.53;;
17496;SDS011;62150;43.582;1.456;2022-12-18T09:03:38;14.37;;;6.87;;
17496;SDS011;62150;43.582;1.456;2022-12-18T09:06:06;11.50;;;5.90;;
17496;SDS011;62150;43.582;1.456;2022-12-18T09:08:34;12.03;;;6.47;;
17496;SDS011;62150;43.582;1.456;2022-12-18T09:11:02;13.20;;;5.80;;
17496;SDS011;62150;43.582;1.456;2022-12-18T09:13:33;11.77;;;5.43;;
17496;SDS011;62150;43.582;1.456;2022-12-18T09:16:04;10.70;;;5.10;;
17496;SDS011;62150;43.582;1.456;2022-12-18T09:18:31;10.77;;;4.80;;
17496;SDS011;62150;43.582;1.456;2022-12-18T09:21:06;11.10;;;4.77;;
17496;SDS011;62150;43.582;1.456;2022-12-18T09:23:35;10.77;;;5.00;;
17496;SDS011;62150;43.582;1.456;2022-12-18T09:26:03;10.87;;;5.10;;
17496;SDS011;62150;43.582;1.456;2022-12-18T09:28:30;11.60;;;4.80;;
17496;SDS011;62150;43.582;1.456;2022-12-18T09:30:58;10.77;;;4.57;;
17496;SDS011;62150;43.582;1.456;2022-12-18T09:33:29;10.83;;;4.90;;
17496;SDS011;62150;43.582;1.456;2022-12-18T09:35:57;10.13;;;4.67;;
17496;SDS011;62150;43.582;1.456;2022-12-18T09:38:28;8.97;;;4.20;;
17496;SDS011;62150;43.582;1.456;2022-12-18T09:40:57;10.33;;;4.57;;
17496;SDS011;62150;43.582;1.456;2022-12-18T09:43:28;10.20;;;4.77;;
17496;SDS011;62150;43.582;1.456;2022-12-18T09:46:03;9.93;;;4.47;;
17496;SDS011;62150;43.582;1.456;2022-12-18T09:48:34;10.97;;;4.83;;
17496;SDS011;62150;43.582;1.456;2022-12-18T09:51:05;12.30;;;5.20;;
17496;SDS011;62150;43.582;1.456;2022-12-18T09:53:43;11.40;;;5.03;;
17496;SDS011;62150;43.582;1.456;2022-12-18T09:56:15;10.00;;;4.40;;
17496;SDS011;62150;43.582;1.456;2022-12-18T09:58:49;10.20;;;4.53;;
17496;SDS011;62150;43.582;1.456;2022-12-18T10:01:21;11.10;;;4.47;;
17496;SDS011;62150;43.582;1.456;2022-12-18T10:03:49;9.40;;;4.30;;
17496;SDS011;62150;43.582;1.456;2022-12-18T10:06:20;10.47;;;4.30;;
17496;SDS011;62150;43.582;1.456;2022-12-18T10:08:54;9.43;;;4.30;;
17496;SDS011;62150;43.582;1.456;2022-12-18T10:11:29;10.53;;;4.30;;
17496;SDS011;62150;43.582;1.456;2022-12-18T10:14:06;9.97;;;4.30;;
17496;SDS011;62150;43.582;1.456;2022-12-18T10:16:47;8.30;;;3.80;;
17496;SDS011;62150;43.582;1.456;2022-12-18T10:19:25;8.67;;;3.70;;
17496;SDS011;62150;43.582;1.456;2022-12-18T10:22:07;10.50;;;4.30;;
17496;SDS011;62150;43.582;1.456;2022-12-18T10:24:54;8.37;;;3.87;;
17496;SDS011;62150;43.582;1.456;2022-12-18T10:27:27;8.97;;;4.07;;
17496;SDS011;62150;43.582;1.456;2022-12-18T10:29:55;10.10;;;4.20;;
17496;SDS011;62150;43.582;1.456;2022-12-18T10:32:24;9.43;;;4.17;;
17496;SDS011;62150;43.582;1.456;2022-12-18T10:34:53;9.30;;;4.00;;
17496;SDS011;62150;43.582;1.456;2022-12-18T10:37:23;8.53;;;3.97;;
17496;SDS011;62150;43.582;1.456;2022-12-18T10:40:06;9.83;;;4.20;;
17496;SDS011;62150;43.582;1.456;2022-12-18T10:42:36;7.50;;;3.57;;
17496;SDS011;62150;43.582;1.456;2022-12-18T10:45:08;9.13;;;3.97;;
17496;SDS011;62150;43.582;1.456;2022-12-18T10:47:41;9.07;;;3.90;;
17496;SDS011;62150;43.582;1.456;2022-12-18T10:50:18;9.00;;;3.80;;
17496;SDS011;62150;43.582;1.456;2022-12-18T10:52:54;7.97;;;3.77;;
17496;SDS011;62150;43.582;1.456;2022-12-18T10:55:24;8.77;;;3.77;;
17496;SDS011;62150;43.582;1.456;2022-12-18T10:58:08;8.57;;;3.90;;
17496;SDS011;62150;43.582;1.456;2022-12-18T11:00:53;8.93;;;3.57;;
17496;SDS011;62150;43.582;1.456;2022-12-18T11:03:31;8.77;;;3.70;;
17496;SDS011;62150;43.582;1.456;2022-12-18T11:06:02;8.70;;;3.53;;
17496;SDS011;62150;43.582;1.456;2022-12-18T11:08:32;8.03;;;3.80;;
17496;SDS011;62150;43.582;1.456;2022-12-18T11:11:01;7.90;;;3.77;;
17496;SDS011;62150;43.582;1.456;2022-12-18T11:13:30;9.47;;;3.77;;
17496;SDS011;62150;43.582;1.456;2022-12-18T11:15:59;8.00;;;3.60;;
17496;SDS011;62150;43.582;1.456;2022-12-18T11:18:30;7.13;;;3.30;;
17496;SDS011;62150;43.582;1.456;2022-12-18T11:21:00;8.57;;;3.60;;
17496;SDS011;62150;43.582;1.456;2022-12-18T11:23:35;7.17;;;3.53;;
17496;SDS011;62150;43.582;1.456;2022-12-18T11:26:12;8.17;;;3.57;;
17496;SDS011;62150;43.582;1.456;2022-12-18T11:28:41;7.63;;;3.43;;
17496;SDS011;62150;43.582;1.456;2022-12-18T11:31:12;7.93;;;3.53;;
17496;SDS011;62150;43.582;1.456;2022-12-18T11:33:46;8.13;;;3.57;;
17496;SDS011;62150;43.582;1.456;2022-12-18T11:36:20;8.40;;;3.60;;
17496;SDS011;62150;43.582;1.456;2022-12-18T11:38:49;8.67;;;3.97;;
17496;SDS011;62150;43.582;1.456;2022-12-18T11:41:23;8.13;;;3.60;;
17496;SDS011;62150;43.582;1.456;2022-12-18T11:44:11;9.23;;;3.90;;
17496;SDS011;62150;43.582;1.456;2022-12-18T11:46:45;7.77;;;3.20;;
17496;SDS011;62150;43.582;1.456;2022-12-18T11:49:20;8.10;;;3.73;;
17496;SDS011;62150;43.582;1.456;2022-12-18T11:51:52;9.00;;;3.63;;
17496;SDS011;62150;43.582;1.456;2022-12-18T11:54:23;8.53;;;3.97;;
17496;SDS011;62150;43.582;1.456;2022-12-18T11:56:53;7.73;;;3.53;;
17496;SDS011;62150;43.582;1.456;2022-12-18T11:59:28;8.40;;;3.43;;
17496;SDS011;62150;43.582;1.456;2022-12-18T12:02:21;8.73;;;3.90;;
17496;SDS011;62150;43.582;1.456;2022-12-18T12:05:10;8.13;;;3.43;;
17496;SDS011;62150;43.582;1.456;2022-12-18T12:07:52;8.60;;;3.90;;
17496;SDS011;62150;43.582;1.456;2022-12-18T12:10:29;8.27;;;3.70;;
17496;SDS011;62150;43.582;1.456;2022-12-18T12:13:17;9.03;;;3.57;;
17496;SDS011;62150;43.582;1.456;2022-12-18T12:15:58;9.00;;;3.70;;
17496;SDS011;62150;43.582;1.456;2022-12-18T12:18:41;7.83;;;3.60;;
17496;SDS011;62150;43.582;1.456;2022-12-18T12:21:23;7.83;;;3.87;;
17496;SDS011;62150;43.582;1.456;2022-12-18T12:23:58;9.13;;;3.80;;
17496;SDS011;62150;43.582;1.456;2022-12-18T12:26:36;9.27;;;3.90;;
17496;SDS011;62150;43.582;1.456;2022-12-18T12:29:21;6.77;;;3.30;;
17496;SDS011;62150;43.582;1.456;2022-12-18T12:32:00;8.83;;;3.80;;
17496;SDS011;62150;43.582;1.456;2022-12-18T12:34:41;7.53;;;3.63;;
17496;SDS011;62150;43.582;1.456;2022-12-18T12:37:21;8.90;;;4.17;;
17496;SDS011;62150;43.582;1.456;2022-12-18T12:39:55;10.40;;;4.23;;
17496;SDS011;62150;43.582;1.456;2022-12-18T12:42:26;8.40;;;3.93;;
17496;SDS011;62150;43.582;1.456;2022-12-18T12:48:04;8.93;;;3.73;;
17496;SDS011;62150;43.582;1.456;2022-12-18T12:50:41;8.43;;;4.07;;
17496;SDS011;62150;43.582;1.456;2022-12-18T12:53:21;8.80;;;3.90;;
17496;SDS011;62150;43.582;1.456;2022-12-18T12:55:55;9.27;;;4.20;;
17496;SDS011;62150;43.582;1.456;2022-12-18T12:58:26;9.10;;;4.20;;
17496;SDS011;62150;43.582;1.456;2022-12-18T13:01:04;9.43;;;3.93;;
17496;SDS011;62150;43.582;1.456;2022-12-18T13:03:42;8.40;;;4.00;;
17496;SDS011;62150;43.582;1.456;2022-12-18T13:06:19;8.57;;;4.00;;
17496;SDS011;62150;43.582;1.456;2022-12-18T13:09:00;9.07;;;4.00;;
17496;SDS011;62150;43.582;1.456;2022-12-18T13:11:30;8.27;;;4.00;;
17496;SDS011;62150;43.582;1.456;2022-12-18T13:14:29;9.47;;;4.30;;
17496;SDS011;62150;43.582;1.456;2022-12-18T13:17:22;9.40;;;4.47;;
17496;SDS011;62150;43.582;1.456;2022-12-18T13:22:44;10.67;;;4.67;;
17496;SDS011;62150;43.582;1.456;2022-12-18T13:25:26;12.97;;;5.20;;
17496;SDS011;62150;43.582;1.456;2022-12-18T13:28:05;10.07;;;4.93;;
17496;SDS011;62150;43.582;1.456;2022-12-18T13:30:42;11.47;;;5.17;;
17496;SDS011;62150;43.582;1.456;2022-12-18T13:36:12;9.83;;;4.70;;
17496;SDS011;62150;43.582;1.456;2022-12-18T13:39:20;9.30;;;4.70;;
17496;SDS011;62150;43.582;1.456;2022-12-18T13:41:51;9.43;;;4.60;;
17496;SDS011;62150;43.582;1.456;2022-12-18T13:45:00;11.80;;;5.50;;
17496;SDS011;62150;43.582;1.456;2022-12-18T13:47:32;10.87;;;5.03;;
17496;SDS011;62150;43.582;1.456;2022-12-18T13:50:06;9.67;;;4.70;;
17496;SDS011;62150;43.582;1.456;2022-12-18T13:52:46;10.80;;;4.80;;
17496;SDS011;62150;43.582;1.456;2022-12-18T13:55:14;9.33;;;4.60;;
17496;SDS011;62150;43.582;1.456;2022-12-18T13:57:45;9.77;;;4.73;;
17496;SDS011;62150;43.582;1.456;2022-12-18T14:00:19;8.67;;;4.37;;
17496;SDS011;62150;43.582;1.456;2022-12-18T14:02:52;10.80;;;4.70;;
17496;SDS011;62150;43.582;1.456;2022-12-18T14:05:23;10.10;;;4.50;;
17496;SDS011;62150;43.582;1.456;2022-12-18T14:07:51;10.70;;;5.23;;
17496;SDS011;62150;43.582;1.456;2022-12-18T14:10:20;10.87;;;5.00;;
17496;SDS011;62150;43.582;1.456;2022-12-18T14:12:48;10.10;;;5.23;;
17496;SDS011;62150;43.582;1.456;2022-12-18T14:15:24;12.70;;;6.00;;
17496;SDS011;62150;43.582;1.456;2022-12-18T14:17:58;12.33;;;5.70;;
17496;SDS011;62150;43.582;1.456;2022-12-18T14:20:31;12.50;;;6.13;;
17496;SDS011;62150;43.582;1.456;2022-12-18T14:23:00;11.73;;;6.27;;
17496;SDS011;62150;43.582;1.456;2022-12-18T14:25:28;13.73;;;6.63;;
17496;SDS011;62150;43.582;1.456;2022-12-18T14:28:02;10.60;;;5.60;;
17496;SDS011;62150;43.582;1.456;2022-12-18T14:30:39;9.37;;;4.77;;
17496;SDS011;62150;43.582;1.456;2022-12-18T14:33:09;10.13;;;4.67;;
17496;SDS011;62150;43.582;1.456;2022-12-18T14:35:40;9.57;;;4.50;;
17496;SDS011;62150;43.582;1.456;2022-12-18T14:38:10;9.20;;;4.20;;
17496;SDS011;62150;43.582;1.456;2022-12-18T14:40:51;9.60;;;4.60;;
17496;SDS011;62150;43.582;1.456;2022-12-18T14:43:20;10.40;;;4.63;;
17496;SDS011;62150;43.582;1.456;2022-12-18T14:45:48;9.87;;;4.47;;
17496;SDS011;62150;43.582;1.456;2022-12-18T14:48:17;9.00;;;4.37;;
17496;SDS011;62150;43.582;1.456;2022-12-18T14:50:55;10.37;;;4.40;;
17496;SDS011;62150;43.582;1.456;2022-12-18T14:53:29;9.27;;;4.43;;
17496;SDS011;62150;43.582;1.456;2022-12-18T14:56:00;10.00;;;4.50;;
17496;SDS011;62150;43.582;1.456;2022-12-18T14:58:29;10.53;;;4.27;;
17496;SDS011;62150;43.582;1.456;2022-12-18T15:00:57;9.10;;;4.33;;
17496;SDS011;62150;43.582;1.456;2022-12-18T15:03:25;10.13;;;4.33;;
17496;SDS011;62150;43.582;1.456;2022-12-18T15:05:52;9.07;;;4.03;;
17496;SDS011;62150;43.582;1.456;2022-12-18T15:08:27;10.03;;;4.53;;
17496;SDS011;62150;43.582;1.456;2022-12-18T15:10:57;9.77;;;4.63;;
17496;SDS011;62150;43.582;1.456;2022-12-18T15:13:25;12.03;;;5.73;;
17496;SDS011;62150;43.582;1.456;2022-12-18T15:15:53;10.83;;;4.90;;
17496;SDS011;62150;43.582;1.456;2022-12-18T15:18:23;10.40;;;4.77;;
17496;SDS011;62150;43.582;1.456;2022-12-18T15:20:57;9.87;;;4.87;;
17496;SDS011;62150;43.582;1.456;2022-12-18T15:23:34;10.37;;;5.47;;
17496;SDS011;62150;43.582;1.456;2022-12-18T15:26:11;10.37;;;4.87;;
17496;SDS011;62150;43.582;1.456;2022-12-18T15:28:43;10.33;;;4.87;;
17496;SDS011;62150;43.582;1.456;2022-12-18T15:31:22;11.20;;;5.20;;
17496;SDS011;62150;43.582;1.456;2022-12-18T15:34:08;11.17;;;4.83;;
17496;SDS011;62150;43.582;1.456;2022-12-18T15:36:46;11.00;;;4.77;;
17496;SDS011;62150;43.582;1.456;2022-12-18T15:39:13;10.03;;;5.00;;
17496;SDS011;62150;43.582;1.456;2022-12-18T15:41:41;10.27;;;4.60;;
17496;SDS011;62150;43.582;1.456;2022-12-18T15:44:29;9.07;;;4.23;;
17496;SDS011;62150;43.582;1.456;2022-12-18T15:46:56;9.90;;;4.27;;
17496;SDS011;62150;43.582;1.456;2022-12-18T15:49:23;10.20;;;5.07;;
17496;SDS011;62150;43.582;1.456;2022-12-18T15:51:53;9.50;;;4.63;;
17496;SDS011;62150;43.582;1.456;2022-12-18T15:54:23;9.37;;;4.63;;
17496;SDS011;62150;43.582;1.456;2022-12-18T15:57:07;10.33;;;4.70;;
17496;SDS011;62150;43.582;1.456;2022-12-18T15:59:52;9.33;;;4.57;;
17496;SDS011;62150;43.582;1.456;2022-12-18T16:02:23;10.57;;;5.00;;
17496;SDS011;62150;43.582;1.456;2022-12-18T16:04:51;10.87;;;5.27;;
17496;SDS011;62150;43.582;1.456;2022-12-18T16:07:21;11.13;;;5.67;;
17496;SDS011;62150;43.582;1.456;2022-12-18T16:09:49;12.20;;;5.57;;
17496;SDS011;62150;43.582;1.456;2022-12-18T16:12:18;11.97;;;6.03;;
17496;SDS011;62150;43.582;1.456;2022-12-18T16:14:47;13.13;;;6.00;;
17496;SDS011;62150;43.582;1.456;2022-12-18T16:17:16;12.83;;;6.63;;
17496;SDS011;62150;43.582;1.456;2022-12-18T16:19:44;11.73;;;5.57;;
17496;SDS011;62150;43.582;1.456;2022-12-18T16:22:19;10.80;;;4.67;;
17496;SDS011;62150;43.582;1.456;2022-12-18T16:24:49;11.50;;;6.30;;
17496;SDS011;62150;43.582;1.456;2022-12-18T16:27:18;11.97;;;6.20;;
17496;SDS011;62150;43.582;1.456;2022-12-18T16:29:46;11.20;;;5.37;;
17496;SDS011;62150;43.582;1.456;2022-12-18T16:32:14;10.13;;;5.20;;
17496;SDS011;62150;43.582;1.456;2022-12-18T16:34:45;9.83;;;4.90;;
17496;SDS011;62150;43.582;1.456;2022-12-18T16:37:14;10.67;;;4.90;;
17496;SDS011;62150;43.582;1.456;2022-12-18T16:39:43;13.60;;;6.60;;
17496;SDS011;62150;43.582;1.456;2022-12-18T16:42:12;11.50;;;6.27;;
17496;SDS011;62150;43.582;1.456;2022-12-18T16:44:44;10.83;;;5.53;;
17496;SDS011;62150;43.582;1.456;2022-12-18T16:47:12;10.37;;;5.43;;
17496;SDS011;62150;43.582;1.456;2022-12-18T16:49:40;11.17;;;5.80;;
17496;SDS011;62150;43.582;1.456;2022-12-18T16:52:09;10.00;;;5.80;;
17496;SDS011;62150;43.582;1.456;2022-12-18T16:54:37;11.53;;;5.30;;
17496;SDS011;62150;43.582;1.456;2022-12-18T16:57:06;10.37;;;4.90;;
17496;SDS011;62150;43.582;1.456;2022-12-18T16:59:35;10.30;;;4.60;;
17496;SDS011;62150;43.582;1.456;2022-12-18T17:02:02;9.03;;;4.40;;
17496;SDS011;62150;43.582;1.456;2022-12-18T17:04:30;10.83;;;5.00;;
17496;SDS011;62150;43.582;1.456;2022-12-18T17:06:57;9.93;;;4.70;;
17496;SDS011;62150;43.582;1.456;2022-12-18T17:09:25;12.17;;;5.13;;
17496;SDS011;62150;43.582;1.456;2022-12-18T17:11:56;10.20;;;4.27;;
17496;SDS011;62150;43.582;1.456;2022-12-18T17:14:25;10.73;;;5.03;;
17496;SDS011;62150;43.582;1.456;2022-12-18T17:16:57;10.37;;;5.03;;
17496;SDS011;62150;43.582;1.456;2022-12-18T17:19:25;9.27;;;4.43;;
17496;SDS011;62150;43.582;1.456;2022-12-18T17:21:54;10.03;;;4.80;;
17496;SDS011;62150;43.582;1.456;2022-12-18T17:24:21;10.20;;;4.37;;
17496;SDS011;62150;43.582;1.456;2022-12-18T17:26:49;10.23;;;4.20;;
17496;SDS011;62150;43.582;1.456;2022-12-18T17:32:26;9.17;;;4.47;;
17496;SDS011;62150;43.582;1.456;2022-12-18T17:34:54;11.57;;;5.20;;
17496;SDS011;62150;43.582;1.456;2022-12-18T17:37:22;10.40;;;4.70;;
17496;SDS011;62150;43.582;1.456;2022-12-18T17:39:50;9.93;;;4.70;;
17496;SDS011;62150;43.582;1.456;2022-12-18T17:42:19;9.93;;;4.33;;
17496;SDS011;62150;43.582;1.456;2022-12-18T17:44:48;10.10;;;4.43;;
17496;SDS011;62150;43.582;1.456;2022-12-18T17:47:18;9.70;;;3.93;;
17496;SDS011;62150;43.582;1.456;2022-12-18T17:49:59;9.13;;;3.70;;
17496;SDS011;62150;43.582;1.456;2022-12-18T17:52:27;8.07;;;3.37;;
17496;SDS011;62150;43.582;1.456;2022-12-18T17:54:55;9.23;;;3.67;;
17496;SDS011;62150;43.582;1.456;2022-12-18T17:57:23;7.37;;;3.50;;
17496;SDS011;62150;43.582;1.456;2022-12-18T17:59:50;7.33;;;3.40;;
17496;SDS011;62150;43.582;1.456;2022-12-18T18:02:19;9.47;;;3.93;;
17496;SDS011;62150;43.582;1.456;2022-12-18T18:04:47;9.27;;;4.40;;
17496;SDS011;62150;43.582;1.456;2022-12-18T18:07:15;10.60;;;4.37;;
17496;SDS011;62150;43.582;1.456;2022-12-18T18:09:42;8.60;;;3.47;;
17496;SDS011;62150;43.582;1.456;2022-12-18T18:12:10;8.93;;;3.47;;
17496;SDS011;62150;43.582;1.456;2022-12-18T18:14:55;7.37;;;3.40;;
17496;SDS011;62150;43.582;1.456;2022-12-18T18:17:24;10.50;;;4.00;;
17496;SDS011;62150;43.582;1.456;2022-12-18T18:19:51;10.80;;;4.30;;
17496;SDS011;62150;43.582;1.456;2022-12-18T18:22:19;9.90;;;4.10;;
17496;SDS011;62150;43.582;1.456;2022-12-18T18:24:46;8.97;;;3.53;;
17496;SDS011;62150;43.582;1.456;2022-12-18T18:27:14;8.70;;;3.80;;
17496;SDS011;62150;43.582;1.456;2022-12-18T18:29:42;10.33;;;4.03;;
17496;SDS011;62150;43.582;1.456;2022-12-18T18:32:09;8.13;;;3.73;;
17496;SDS011;62150;43.582;1.456;2022-12-18T18:34:38;11.03;;;4.10;;
17496;SDS011;62150;43.582;1.456;2022-12-18T18:37:11;9.60;;;4.63;;
17496;SDS011;62150;43.582;1.456;2022-12-18T18:39:39;11.13;;;4.90;;
17496;SDS011;62150;43.582;1.456;2022-12-18T18:42:06;8.90;;;4.57;;
17496;SDS011;62150;43.582;1.456;2022-12-18T18:44:34;10.67;;;4.93;;
17496;SDS011;62150;43.582;1.456;2022-12-18T18:47:02;10.20;;;4.17;;
17496;SDS011;62150;43.582;1.456;2022-12-18T18:49:29;8.97;;;3.90;;
17496;SDS011;62150;43.582;1.456;2022-12-18T18:51:58;10.17;;;4.37;;
17496;SDS011;62150;43.582;1.456;2022-12-18T18:54:26;12.87;;;5.83;;
17496;SDS011;62150;43.582;1.456;2022-12-18T18:56:55;10.13;;;4.93;;
17496;SDS011;62150;43.582;1.456;2022-12-18T18:59:22;10.20;;;4.90;;
17496;SDS011;62150;43.582;1.456;2022-12-18T19:01:50;12.03;;;5.43;;
17496;SDS011;62150;43.582;1.456;2022-12-18T19:04:18;10.53;;;5.40;;
17496;SDS011;62150;43.582;1.456;2022-12-18T19:06:45;10.67;;;4.90;;
17496;SDS011;62150;43.582;1.456;2022-12-18T19:09:14;11.53;;;6.03;;
17496;SDS011;62150;43.582;1.456;2022-12-18T19:11:42;11.37;;;5.10;;
17496;SDS011;62150;43.582;1.456;2022-12-18T19:14:42;13.37;;;6.40;;
17496;SDS011;62150;43.582;1.456;2022-12-18T19:17:09;10.43;;;5.33;;
17496;SDS011;62150;43.582;1.456;2022-12-18T19:19:37;11.53;;;5.80;;
17496;SDS011;62150;43.582;1.456;2022-12-18T19:22:04;10.37;;;4.80;;
17496;SDS011;62150;43.582;1.456;2022-12-18T19:24:34;11.23;;;5.00;;
17496;SDS011;62150;43.582;1.456;2022-12-18T19:27:02;11.23;;;5.00;;
17496;SDS011;62150;43.582;1.456;2022-12-18T19:29:30;11.10;;;5.00;;
17496;SDS011;62150;43.582;1.456;2022-12-18T19:31:57;11.57;;;6.03;;
17496;SDS011;62150;43.582;1.456;2022-12-18T19:34:25;12.93;;;6.37;;
17496;SDS011;62150;43.582;1.456;2022-12-18T19:36:52;11.30;;;5.77;;
17496;SDS011;62150;43.582;1.456;2022-12-18T19:39:20;13.13;;;5.67;;
17496;SDS011;62150;43.582;1.456;2022-12-18T19:41:49;11.33;;;5.43;;
17496;SDS011;62150;43.582;1.456;2022-12-18T19:44:17;12.10;;;6.43;;
17496;SDS011;62150;43.582;1.456;2022-12-18T19:46:44;11.60;;;5.67;;
17496;SDS011;62150;43.582;1.456;2022-12-18T19:49:15;10.93;;;5.27;;
17496;SDS011;62150;43.582;1.456;2022-12-18T19:51:43;11.60;;;4.97;;
17496;SDS011;62150;43.582;1.456;2022-12-18T19:54:10;11.67;;;5.23;;
17496;SDS011;62150;43.582;1.456;2022-12-18T19:56:38;11.57;;;5.10;;
17496;SDS011;62150;43.582;1.456;2022-12-18T19:59:08;10.93;;;5.07;;
17496;SDS011;62150;43.582;1.456;2022-12-18T20:01:36;11.57;;;4.73;;
17496;SDS011;62150;43.582;1.456;2022-12-18T20:04:04;10.57;;;4.80;;
17496;SDS011;62150;43.582;1.456;2022-12-18T20:06:32;10.50;;;4.97;;
17496;SDS011;62150;43.582;1.456;2022-12-18T20:09:02;13.17;;;5.67;;
17496;SDS011;62150;43.582;1.456;2022-12-18T20:11:32;11.93;;;5.33;;
17496;SDS011;62150;43.582;1.456;2022-12-18T20:14:00;12.63;;;5.67;;
17496;SDS011;62150;43.582;1.456;2022-12-18T20:16:30;14.50;;;5.53;;
17496;SDS011;62150;43.582;1.456;2022-12-18T20:18:58;11.63;;;5.50;;
17496;SDS011;62150;43.582;1.456;2022-12-18T20:21:25;11.80;;;5.10;;
17496;SDS011;62150;43.582;1.456;2022-12-18T20:23:53;10.90;;;4.87;;
17496;SDS011;62150;43.582;1.456;2022-12-18T20:26:21;10.03;;;4.50;;
17496;SDS011;62150;43.582;1.456;2022-12-18T20:28:49;11.27;;;4.50;;
17496;SDS011;62150;43.582;1.456;2022-12-18T20:31:17;11.10;;;4.83;;
17496;SDS011;62150;43.582;1.456;2022-12-18T20:33:46;11.97;;;4.63;;
17496;SDS011;62150;43.582;1.456;2022-12-18T20:36:14;10.97;;;4.20;;
17496;SDS011;62150;43.582;1.456;2022-12-18T20:38:43;10.00;;;4.10;;
17496;SDS011;62150;43.582;1.456;2022-12-18T20:41:13;8.93;;;3.70;;
17496;SDS011;62150;43.582;1.456;2022-12-18T20:43:43;12.40;;;4.40;;
